Time;durP1;ratioP1;P1;durP2;ratioP2;P2;SDS_P1;SDS_P2;PMS_P1;PMS_P2;Temp;Humidity;BMP_temperature;BMP_pressure;BME280_temperature;BME280_humidity;BME280_pressure;Samples;Min_cycle;Max_cycle;Signal;HPM_P1;HPM_P2
2021/04/14 00:00:23;;;;;;;9.15;8.15;;;;;;;;;;6050017;29;20133;-71
2021/04/14 00:03:28;;;;;;;9.20;8.20;;;;;;;;;;6047565;29;20085;-72
2021/04/14 00:06:29;;;;;;;10.07;8.05;;;;;;;;;;6049316;29;20055;-73
2021/04/14 00:09:30;;;;;;;9.75;8.02;;;;;;;;;;6048598;29;20057;-73
2021/04/14 00:12:32;;;;;;;9.52;8.45;;;;;;;;;;6041831;29;20421;-72
2021/04/14 00:15:36;;;;;;;8.80;7.90;;;;;;;;;;6048679;29;20375;-72
2021/04/14 00:18:37;;;;;;;8.70;7.72;;;;;;;;;;6058315;29;20057;-71
2021/04/14 00:21:38;;;;;;;10.90;8.13;;;;;;;;;;6064858;29;20056;-71
2021/04/14 00:24:39;;;;;;;11.18;8.85;;;;;;;;;;6056363;29;20053;-72
2021/04/14 00:27:40;;;;;;;10.35;8.55;;;;;;;;;;6066681;29;20049;-73
2021/04/14 00:30:43;;;;;;;9.40;8.30;;;;;;;;;;6063481;29;20052;-73
2021/04/14 00:33:44;;;;;;;11.60;8.18;;;;;;;;;;6052433;29;20057;-71
2021/04/14 00:36:46;;;;;;;11.73;9.10;;;;;;;;;;6050499;29;20132;-71
2021/04/14 00:39:47;;;;;;;11.45;8.40;;;;;;;;;;6052696;29;20059;-72
2021/04/14 00:42:48;;;;;;;11.38;9.10;;;;;;;;;;6053992;29;20173;-72
2021/04/14 00:45:50;;;;;;;10.20;9.20;;;;;;;;;;6055847;29;20140;-71
2021/04/14 00:48:51;;;;;;;11.05;9.43;;;;;;;;;;6055375;29;20132;-71
2021/04/14 00:51:52;;;;;;;10.57;8.68;;;;;;;;;;6053259;29;20086;-70
2021/04/14 00:54:53;;;;;;;9.35;8.38;;;;;;;;;;6051050;29;20041;-72
2021/04/14 00:57:54;;;;;;;9.15;8.25;;;;;;;;;;6056713;29;20144;-71
2021/04/14 01:00:57;;;;;;;10.10;9.10;;;;;;;;;;6053266;29;20068;-70
2021/04/14 01:03:58;;;;;;;10.65;8.75;;;;;;;;;;6316284;23;20698;-70
2021/04/14 01:06:59;;;;;;;10.05;8.50;;;;;;;;;;6063518;29;20090;-72
2021/04/14 01:10:00;;;;;;;10.55;8.95;;;;;;;;;;6057467;29;20171;-70
2021/04/14 01:13:02;;;;;;;10.18;8.70;;;;;;;;;;6062552;29;20139;-71
2021/04/14 01:16:04;;;;;;;11.30;9.07;;;;;;;;;;6064083;29;20436;-72
2021/04/14 01:19:06;;;;;;;11.45;9.30;;;;;;;;;;6065357;29;20053;-72
2021/04/14 01:22:08;;;;;;;11.45;9.27;;;;;;;;;;6064747;29;20128;-73
2021/04/14 01:25:11;;;;;;;13.55;9.82;;;;;;;;;;6069733;29;20057;-73
2021/04/14 01:28:15;;;;;;;10.63;9.33;;;;;;;;;;6070875;29;21368;-72
2021/04/14 01:31:19;;;;;;;11.90;9.20;;;;;;;;;;6074743;29;20074;-73
2021/04/14 01:34:20;;;;;;;10.00;8.95;;;;;;;;;;6066869;29;20051;-72
2021/04/14 01:37:22;;;;;;;10.27;9.20;;;;;;;;;;6055716;29;20507;-75
2021/04/14 01:40:25;;;;;;;10.90;9.38;;;;;;;;;;6064084;29;20071;-72
2021/04/14 01:43:26;;;;;;;11.98;9.15;;;;;;;;;;6066507;29;20171;-72
2021/04/14 01:46:27;;;;;;;12.80;10.05;;;;;;;;;;6067831;29;20132;-72
2021/04/14 01:49:28;;;;;;;12.65;9.02;;;;;;;;;;6081077;29;20069;-72
2021/04/14 01:52:30;;;;;;;9.77;8.75;;;;;;;;;;6074998;29;20151;-72
2021/04/14 01:55:31;;;;;;;11.88;8.77;;;;;;;;;;6075273;29;20507;-73
2021/04/14 01:58:32;;;;;;;12.88;9.35;;;;;;;;;;6079624;29;20101;-72
2021/04/14 02:01:34;;;;;;;11.25;9.25;;;;;;;;;;6071994;29;20606;-72
2021/04/14 02:04:35;;;;;;;9.57;8.43;;;;;;;;;;6072085;29;20144;-72
2021/04/14 02:07:37;;;;;;;9.25;8.02;;;;;;;;;;6071111;29;20135;-72
2021/04/14 02:10:38;;;;;;;9.93;8.10;;;;;;;;;;6073368;29;20088;-72
2021/04/14 02:13:41;;;;;;;9.68;8.07;;;;;;;;;;6079191;29;20108;-71
2021/04/14 02:16:42;;;;;;;10.40;7.82;;;;;;;;;;6074050;29;20543;-72
2021/04/14 02:19:43;;;;;;;9.60;7.43;;;;;;;;;;6071949;29;20045;-72
2021/04/14 02:22:45;;;;;;;9.23;7.75;;;;;;;;;;6073683;29;20151;-72
2021/04/14 02:25:46;;;;;;;10.30;8.57;;;;;;;;;;6073686;29;20045;-72
2021/04/14 02:28:48;;;;;;;11.60;7.85;;;;;;;;;;6074007;29;20419;-73
2021/04/14 02:31:49;;;;;;;8.57;7.60;;;;;;;;;;6072998;29;20045;-73
2021/04/14 02:34:50;;;;;;;9.00;7.30;;;;;;;;;;6073592;29;20588;-72
2021/04/14 02:37:53;;;;;;;10.85;7.47;;;;;;;;;;6075535;29;20124;-72
2021/04/14 02:40:54;;;;;;;9.05;7.32;;;;;;;;;;6073487;29;20056;-73
2021/04/14 02:43:55;;;;;;;9.35;7.38;;;;;;;;;;6076877;29;20209;-72
2021/04/14 02:46:56;;;;;;;11.20;7.53;;;;;;;;;;6076511;29;20048;-72
2021/04/14 02:49:57;;;;;;;10.63;8.02;;;;;;;;;;6077898;29;20549;-73
2021/04/14 02:52:59;;;;;;;9.88;7.22;;;;;;;;;;6070813;29;20124;-72
2021/04/14 02:56:00;;;;;;;7.85;6.90;;;;;;;;;;6069917;29;20174;-72
2021/04/14 02:59:02;;;;;;;11.45;7.43;;;;;;;;;;6077960;29;20151;-71
2021/04/14 03:02:03;;;;;;;8.95;7.30;;;;;;;;;;6062209;29;20077;-71
2021/04/14 03:05:05;;;;;;;8.88;7.10;;;;;;;;;;6064278;29;20057;-68
2021/04/14 03:08:07;;;;;;;7.15;6.22;;;;;;;;;;6071684;29;20144;-71
2021/04/14 03:11:08;;;;;;;9.52;6.97;;;;;;;;;;6068673;29;20120;-71
2021/04/14 03:14:10;;;;;;;10.10;7.55;;;;;;;;;;6070097;29;20083;-71
2021/04/14 03:17:11;;;;;;;8.85;7.20;;;;;;;;;;6076923;29;20056;-71
2021/04/14 03:20:13;;;;;;;13.60;8.43;;;;;;;;;;6072368;29;20143;-71
2021/04/14 03:23:16;;;;;;;10.68;7.75;;;;;;;;;;6068040;29;20494;-71
2021/04/14 03:26:17;;;;;;;10.13;8.07;;;;;;;;;;6067828;29;20056;-71
2021/04/14 03:29:18;;;;;;;9.75;7.90;;;;;;;;;;6061844;29;20143;-72
2021/04/14 03:32:20;;;;;;;11.23;8.35;;;;;;;;;;6068526;29;20139;-72
2021/04/14 03:35:23;;;;;;;10.57;8.57;;;;;;;;;;6067177;29;20058;-69
2021/04/14 03:38:25;;;;;;;10.68;8.02;;;;;;;;;;6067092;29;20662;-71
2021/04/14 03:41:26;;;;;;;10.52;8.18;;;;;;;;;;6069237;29;20134;-72
2021/04/14 03:44:32;;;;;;;13.48;8.25;;;;;;;;;;6074268;29;20139;-72
2021/04/14 03:47:33;;;;;;;11.40;9.38;;;;;;;;;;6066070;29;20041;-72
2021/04/14 03:50:34;;;;;;;11.15;8.13;;;;;;;;;;6070135;29;20147;-72
2021/04/14 03:53:38;;;;;;;10.15;8.35;;;;;;;;;;6066881;29;20615;-72
2021/04/14 03:56:39;;;;;;;16.95;8.77;;;;;;;;;;6075727;29;20104;-72
2021/04/14 03:59:40;;;;;;;11.65;8.27;;;;;;;;;;6076035;29;20167;-72
2021/04/14 04:02:42;;;;;;;12.30;7.93;;;;;;;;;;6071237;29;20550;-71
2021/04/14 04:05:44;;;;;;;10.43;8.25;;;;;;;;;;6072304;29;20083;-71
2021/04/14 04:08:46;;;;;;;10.23;8.38;;;;;;;;;;6076413;29;20136;-71
2021/04/14 04:11:47;;;;;;;9.73;7.75;;;;;;;;;;6073352;29;20056;-71
2021/04/14 04:14:49;;;;;;;11.13;7.35;;;;;;;;;;6076773;29;20144;-71
2021/04/14 04:17:50;;;;;;;10.43;8.40;;;;;;;;;;6077042;29;20056;-71
2021/04/14 04:20:53;;;;;;;11.75;7.55;;;;;;;;;;6075932;29;20141;-71
2021/04/14 04:23:55;;;;;;;11.95;8.38;;;;;;;;;;6078683;29;20476;-71
2021/04/14 04:26:56;;;;;;;10.68;8.43;;;;;;;;;;6079845;29;20057;-71
2021/04/14 04:29:57;;;;;;;12.15;9.25;;;;;;;;;;6071970;29;20045;-71
2021/04/14 04:32:59;;;;;;;11.93;8.65;;;;;;;;;;6076228;29;20535;-71
2021/04/14 04:36:00;;;;;;;12.68;8.43;;;;;;;;;;6066419;29;20069;-71
2021/04/14 04:39:04;;;;;;;13.48;8.07;;;;;;;;;;6068320;29;20140;-71
2021/04/14 04:42:06;;;;;;;12.18;9.50;;;;;;;;;;6071214;29;20060;-70
2021/04/14 04:45:08;;;;;;;15.45;9.48;;;;;;;;;;6069218;29;20082;-70
2021/04/14 04:48:10;;;;;;;14.07;9.32;;;;;;;;;;6065692;29;20075;-71
2021/04/14 04:51:11;;;;;;;12.55;8.65;;;;;;;;;;6069535;29;20060;-71
2021/04/14 04:54:13;;;;;;;11.30;9.02;;;;;;;;;;6074851;29;20568;-71
2021/04/14 04:57:14;;;;;;;13.68;8.82;;;;;;;;;;6077685;29;20056;-70
2021/04/14 05:00:16;;;;;;;13.23;9.68;;;;;;;;;;6075370;29;20084;-72
2021/04/14 05:03:18;;;;;;;13.38;8.90;;;;;;;;;;6077782;29;20067;-73
2021/04/14 05:06:19;;;;;;;14.48;8.82;;;;;;;;;;6073948;29;20072;-72
2021/04/14 05:09:21;;;;;;;14.45;9.18;;;;;;;;;;6072296;29;20049;-72
2021/04/14 05:12:22;;;;;;;12.52;8.60;;;;;;;;;;6075486;29;20040;-72
2021/04/14 05:15:26;;;;;;;13.27;9.35;;;;;;;;;;6075823;29;20049;-71
2021/04/14 05:18:30;;;;;;;13.55;9.60;;;;;;;;;;6071585;29;20129;-71
2021/04/14 05:21:32;;;;;;;11.52;9.15;;;;;;;;;;6072987;29;20125;-71
2021/04/14 05:24:34;;;;;;;14.02;9.98;;;;;;;;;;6070205;29;20041;-71
2021/04/14 05:27:37;;;;;;;14.63;9.73;;;;;;;;;;6069384;29;20036;-72
2021/04/14 05:30:39;;;;;;;12.93;9.55;;;;;;;;;;6071560;29;20505;-71
2021/04/14 05:33:40;;;;;;;13.00;9.43;;;;;;;;;;6075184;29;20116;-71
2021/04/14 05:36:41;;;;;;;12.32;9.05;;;;;;;;;;6074143;29;20088;-70
2021/04/14 05:39:43;;;;;;;12.23;8.98;;;;;;;;;;6070865;29;20060;-71
2021/04/14 05:42:46;;;;;;;13.43;9.50;;;;;;;;;;6072733;29;20080;-72
2021/04/14 05:45:52;;;;;;;15.25;9.70;;;;;;;;;;6079936;29;20053;-71
2021/04/14 05:48:53;;;;;;;11.65;9.00;;;;;;;;;;6072569;29;20048;-71
2021/04/14 05:51:54;;;;;;;17.70;8.70;;;;;;;;;;6071647;29;20522;-71
2021/04/14 05:54:56;;;;;;;13.52;8.90;;;;;;;;;;6073758;29;20401;-71
2021/04/14 05:57:57;;;;;;;12.75;9.15;;;;;;;;;;6071046;29;20088;-71
2021/04/14 06:00:59;;;;;;;14.20;8.60;;;;;;;;;;6071613;29;20083;-71
2021/04/14 06:04:00;;;;;;;12.05;8.70;;;;;;;;;;6065612;29;20057;-71
2021/04/14 06:07:01;;;;;;;11.43;7.90;;;;;;;;;;6074936;29;20361;-71
2021/04/14 06:10:04;;;;;;;14.80;8.90;;;;;;;;;;6076708;29;20064;-71
2021/04/14 06:13:05;;;;;;;15.98;8.50;;;;;;;;;;6075677;29;20084;-71
2021/04/14 06:16:09;;;;;;;10.52;7.90;;;;;;;;;;6069143;29;20056;-72
2021/04/14 06:19:11;;;;;;;12.60;8.40;;;;;;;;;;6069015;29;20083;-72
2021/04/14 06:22:12;;;;;;;12.68;8.18;;;;;;;;;;6070838;29;20068;-71
2021/04/14 06:25:16;;;;;;;12.50;7.30;;;;;;;;;;6075955;29;20113;-71
2021/04/14 06:28:17;;;;;;;13.90;7.03;;;;;;;;;;6068999;29;21459;-70
2021/04/14 06:31:18;;;;;;;8.65;6.63;;;;;;;;;;6076381;29;20055;-71
2021/04/14 06:34:23;;;;;;;6.97;5.28;;;;;;;;;;6072509;29;20500;-70
2021/04/14 06:37:24;;;;;;;;;;;;;;;;;;6077044;29;20483;-71
2021/04/14 06:40:48;;;;;;;9.00;6.95;;;;;;;;;;6073086;29;19927;-71
2021/04/14 06:43:55;;;;;;;7.90;6.22;;;;;;;;;;6070663;29;20061;-70
2021/04/14 06:46:57;;;;;;;9.93;5.82;;;;;;;;;;6067225;29;20041;-71
2021/04/14 06:50:03;;;;;;;8.93;5.65;;;;;;;;;;6075948;29;20518;-70
2021/04/14 06:53:14;;;;;;;5.97;4.82;;;;;;;;;;6071518;29;20051;-70
2021/04/14 06:56:18;;;;;;;10.63;5.18;;;;;;;;;;6062380;29;20049;-70
2021/04/14 06:59:21;;;;;;;6.97;4.90;;;;;;;;;;6071044;29;20080;-71
2021/04/14 07:02:24;;;;;;;5.30;4.30;;;;;;;;;;6068077;29;20488;-71
2021/04/14 07:05:34;;;;;;;6.35;4.22;;;;;;;;;;6074198;29;20136;-71
2021/04/14 07:08:41;;;;;;;7.63;4.63;;;;;;;;;;6072425;29;20083;-72
2021/04/14 07:11:43;;;;;;;6.32;4.13;;;;;;;;;;6074136;29;20177;-72
2021/04/14 07:14:45;;;;;;;8.15;5.00;;;;;;;;;;6073429;29;20103;-72
2021/04/14 07:18:03;;;;;;;6.25;4.13;;;;;;;;;;6074212;29;20144;-70
2021/04/14 07:21:07;;;;;;;8.75;4.55;;;;;;;;;;6072821;29;20103;-72
2021/04/14 07:24:16;;;;;;;4.78;3.70;;;;;;;;;;6075420;29;20081;-72
2021/04/14 07:27:26;;;;;;;7.32;4.40;;;;;;;;;;6068981;29;20049;-71
2021/04/14 07:30:31;;;;;;;6.57;4.85;;;;;;;;;;6064371;29;20196;-72
2021/04/14 07:33:42;;;;;;;6.13;4.65;;;;;;;;;;6069504;29;20072;-72
2021/04/14 07:36:49;;;;;;;11.05;5.70;;;;;;;;;;6069391;29;20469;-71
2021/04/14 07:39:55;;;;;;;9.13;4.97;;;;;;;;;;6069121;29;20041;-70
2021/04/14 07:43:04;;;;;;;6.65;5.40;;;;;;;;;;6069015;29;20100;-71
2021/04/14 07:46:09;;;;;;;6.45;4.65;;;;;;;;;;6074796;29;20056;-71
2021/04/14 07:49:11;;;;;;;6.40;4.90;;;;;;;;;;6071081;29;20400;-72
2021/04/14 07:52:14;;;;;;;7.97;4.68;;;;;;;;;;6072737;29;20209;-71
2021/04/14 07:55:20;;;;;;;6.45;4.13;;;;;;;;;;6070507;29;20088;-71
2021/04/14 07:58:25;;;;;;;5.10;3.72;;;;;;;;;;6073537;29;21478;-71
2021/04/14 08:01:29;;;;;;;8.27;4.25;;;;;;;;;;6061632;29;20148;-71
2021/04/14 08:04:32;;;;;;;4.45;4.03;;;;;;;;;;6071018;29;20062;-71
2021/04/14 08:07:36;;;;;;;7.55;4.28;;;;;;;;;;6069361;29;20044;-71
2021/04/14 08:10:37;;;;;;;5.05;3.83;;;;;;;;;;6071815;29;20116;-70
2021/04/14 08:13:42;;;;;;;5.97;4.82;;;;;;;;;;6068722;29;20135;-71
2021/04/14 08:16:47;;;;;;;5.97;4.10;;;;;;;;;;6068802;29;20156;-71
2021/04/14 08:19:57;;;;;;;5.63;3.33;;;;;;;;;;6068360;29;20076;-71
2021/04/14 08:23:06;;;;;;;8.32;3.83;;;;;;;;;;6070777;29;20057;-71
2021/04/14 08:26:16;;;;;;;3.97;3.25;;;;;;;;;;6061595;29;20071;-70
2021/04/14 08:29:18;;;;;;;4.50;3.45;;;;;;;;;;6067961;29;20573;-72
2021/04/14 08:32:20;;;;;;;4.43;3.50;;;;;;;;;;6071354;29;20091;-70
2021/04/14 08:35:28;;;;;;;4.72;3.67;;;;;;;;;;6069696;29;20638;-72
2021/04/14 08:38:31;;;;;;;5.55;3.72;;;;;;;;;;6067975;29;20059;-71
2021/04/14 08:41:32;;;;;;;4.68;3.85;;;;;;;;;;6063332;29;20084;-71
2021/04/14 08:44:41;;;;;;;4.25;3.47;;;;;;;;;;6064232;29;20192;-71
2021/04/14 08:47:46;;;;;;;4.28;3.80;;;;;;;;;;6066946;29;20139;-71
2021/04/14 08:50:49;;;;;;;6.55;4.18;;;;;;;;;;6064213;29;20176;-71
2021/04/14 08:53:55;;;;;;;5.72;4.07;;;;;;;;;;6068891;29;20095;-71
2021/04/14 08:56:56;;;;;;;7.07;4.05;;;;;;;;;;6065957;29;20052;-71
2021/04/14 08:59:58;;;;;;;6.05;4.50;;;;;;;;;;6066768;29;20421;-71
2021/04/14 09:03:01;;;;;;;6.78;4.38;;;;;;;;;;6066133;29;20044;-71
2021/04/14 09:06:02;;;;;;;4.57;3.87;;;;;;;;;;6063602;29;20127;-71
2021/04/14 09:09:05;;;;;;;4.88;4.00;;;;;;;;;;6066758;29;20191;-71
2021/04/14 09:12:08;;;;;;;7.85;4.00;;;;;;;;;;6063810;29;20079;-71
2021/04/14 09:15:13;;;;;;;7.03;4.10;;;;;;;;;;6063177;29;20064;-71
2021/04/14 09:18:25;;;;;;;6.68;4.68;;;;;;;;;;6064647;29;20128;-71
2021/04/14 09:21:26;;;;;;;8.50;4.78;;;;;;;;;;6066431;29;20045;-71
2021/04/14 09:24:35;;;;;;;4.82;3.72;;;;;;;;;;6061083;29;20573;-71
2021/04/14 09:27:45;;;;;;;4.28;3.88;;;;;;;;;;6064531;29;20124;-71
2021/04/14 09:30:52;;;;;;;7.82;4.30;;;;;;;;;;6063969;29;20049;-71
2021/04/14 09:33:54;;;;;;;6.05;4.57;;;;;;;;;;6062383;29;20048;-71
2021/04/14 09:36:59;;;;;;;4.88;4.20;;;;;;;;;;6060642;29;20100;-71
2021/04/14 09:40:03;;;;;;;4.43;3.83;;;;;;;;;;6055228;29;20045;-71
2021/04/14 09:43:15;;;;;;;;;;;;;;;;;;6055889;29;20079;-71
2021/04/14 09:46:30;;;;;;;5.00;4.35;;;;;;;;;;6062067;29;20026;-71
2021/04/14 09:49:36;;;;;;;5.72;4.38;;;;;;;;;;6061050;29;20100;-72
2021/04/14 09:52:49;;;;;;;5.55;4.43;;;;;;;;;;6064047;29;20052;-72
2021/04/14 09:55:53;;;;;;;5.30;4.30;;;;;;;;;;6062790;29;20113;-71
2021/04/14 09:58:57;;;;;;;6.55;4.32;;;;;;;;;;6061913;29;20136;-70
2021/04/14 10:02:01;;;;;;;3.95;3.33;;;;;;;;;;6068569;29;20077;-70
2021/04/14 10:05:02;;;;;;;5.53;4.03;;;;;;;;;;6075214;29;20541;-70
2021/04/14 10:08:05;;;;;;;11.98;4.40;;;;;;;;;;6067217;29;20086;-73
2021/04/14 10:11:06;;;;;;;5.03;4.03;;;;;;;;;;6065388;29;20048;-71
2021/04/14 10:14:09;;;;;;;5.30;3.78;;;;;;;;;;6066822;29;20395;-72
2021/04/14 10:17:11;;;;;;;5.20;3.67;;;;;;;;;;6068150;29;20100;-71
2021/04/14 10:20:17;;;;;;;4.60;4.20;;;;;;;;;;6074955;29;20555;-72
2021/04/14 10:23:21;;;;;;;4.82;4.30;;;;;;;;;;6072910;29;20154;-72
2021/04/14 10:26:22;;;;;;;6.00;4.07;;;;;;;;;;6060669;29;20296;-69
2021/04/14 10:29:25;;;;;;;4.75;3.83;;;;;;;;;;6062331;29;20108;-70
2021/04/14 10:32:29;;;;;;;6.05;4.80;;;;;;;;;;6060825;29;20084;-69
2021/04/14 10:35:30;;;;;;;4.90;4.40;;;;;;;;;;6066191;29;20504;-70
2021/04/14 10:38:33;;;;;;;4.93;4.43;;;;;;;;;;6066324;29;20087;-71
2021/04/14 10:41:34;;;;;;;5.65;4.25;;;;;;;;;;6072427;29;20080;-71
2021/04/14 10:44:36;;;;;;;4.53;3.90;;;;;;;;;;6074332;29;20190;-71
2021/04/14 10:47:39;;;;;;;4.13;3.72;;;;;;;;;;6070914;29;20072;-72
2021/04/14 10:50:40;;;;;;;;;;;;;;;;;;6072676;29;20057;-73
2021/04/14 10:53:42;;;;;;;5.60;4.85;;;;;;;;;;6070667;29;19932;-72
2021/04/14 10:56:43;;;;;;;4.97;4.47;;;;;;;;;;6074402;29;20217;-73
2021/04/14 10:59:46;;;;;;;5.05;4.40;;;;;;;;;;6075914;29;20169;-72
2021/04/14 11:02:49;;;;;;;5.50;4.90;;;;;;;;;;6078495;29;20068;-71
2021/04/14 11:05:52;;;;;;;6.85;4.78;;;;;;;;;;6069651;29;20532;-72
2021/04/14 11:08:55;;;;;;;5.20;4.70;;;;;;;;;;6070403;29;20056;-71
2021/04/14 11:11:58;;;;;;;5.95;5.30;;;;;;;;;;6069791;29;20057;-70
2021/04/14 11:15:08;;;;;;;5.47;4.93;;;;;;;;;;6063021;29;20075;-70
2021/04/14 11:18:11;;;;;;;5.85;5.13;;;;;;;;;;6059280;29;20044;-72
2021/04/14 11:21:25;;;;;;;5.37;4.83;;;;;;;;;;6056840;29;20128;-70
2021/04/14 11:24:26;;;;;;;7.13;5.10;;;;;;;;;;6061421;29;20104;-72
2021/04/14 11:27:30;;;;;;;7.13;5.18;;;;;;;;;;6061267;29;20059;-71
2021/04/14 11:30:33;;;;;;;4.68;4.28;;;;;;;;;;6062641;29;20120;-71
2021/04/14 11:33:37;;;;;;;5.57;4.60;;;;;;;;;;6064515;29;20163;-70
2021/04/14 11:36:39;;;;;;;9.07;5.15;;;;;;;;;;6070680;29;20484;-71
2021/04/14 11:39:51;;;;;;;6.75;4.05;;;;;;;;;;6072359;29;20163;-72
2021/04/14 11:42:54;;;;;;;5.95;4.72;;;;;;;;;;6064028;29;21062;-72
2021/04/14 11:45:57;;;;;;;5.20;4.22;;;;;;;;;;6066934;29;20444;-72
2021/04/14 11:49:02;;;;;;;6.93;4.43;;;;;;;;;;6071335;29;20052;-72
2021/04/14 11:52:15;;;;;;;6.40;4.47;;;;;;;;;;6064883;29;20048;-71
2021/04/14 11:55:28;;;;;;;6.85;4.43;;;;;;;;;;6062273;29;20534;-71
2021/04/14 11:58:36;;;;;;;5.07;4.45;;;;;;;;;;6065365;29;20088;-71
2021/04/14 12:01:53;;;;;;;6.07;4.50;;;;;;;;;;6068572;29;20164;-70
2021/04/14 12:04:57;;;;;;;5.13;4.32;;;;;;;;;;6067038;29;20127;-72
2021/04/14 12:07:58;;;;;;;7.75;4.88;;;;;;;;;;6072325;29;20169;-72
2021/04/14 12:10:59;;;;;;;5.20;4.70;;;;;;;;;;6069111;29;20091;-72
2021/04/14 12:14:00;;;;;;;8.05;4.65;;;;;;;;;;6067049;29;20193;-72
2021/04/14 12:17:02;;;;;;;4.63;4.10;;;;;;;;;;6068788;29;20071;-71
2021/04/14 12:20:05;;;;;;;6.28;4.28;;;;;;;;;;6067427;29;20172;-71
2021/04/14 12:23:07;;;;;;;5.50;5.00;;;;;;;;;;6065779;29;20056;-71
2021/04/14 12:26:08;;;;;;;5.00;4.45;;;;;;;;;;6067595;29;20513;-71
2021/04/14 12:29:09;;;;;;;4.97;4.35;;;;;;;;;;6064820;29;20243;-71
2021/04/14 12:32:10;;;;;;;4.88;4.40;;;;;;;;;;6069005;29;20188;-71
2021/04/14 12:35:12;;;;;;;6.55;4.30;;;;;;;;;;6069871;29;20143;-71
2021/04/14 12:38:13;;;;;;;4.53;3.72;;;;;;;;;;6063288;29;20160;-72
2021/04/14 12:41:15;;;;;;;6.32;3.90;;;;;;;;;;6063818;29;20475;-72
2021/04/14 12:44:16;;;;;;;4.35;3.95;;;;;;;;;;6063243;29;20138;-72
2021/04/14 12:47:21;;;;;;;6.97;4.50;;;;;;;;;;6065123;29;20059;-71
2021/04/14 12:50:22;;;;;;;5.18;4.40;;;;;;;;;;6066220;29;20068;-72
2021/04/14 12:53:24;;;;;;;4.75;3.95;;;;;;;;;;6070825;29;20164;-71
2021/04/14 12:56:30;;;;;;;6.15;4.57;;;;;;;;;;6072408;29;20108;-72
2021/04/14 12:59:33;;;;;;;4.88;4.22;;;;;;;;;;6065484;29;20488;-71
2021/04/14 13:02:40;;;;;;;5.30;4.60;;;;;;;;;;6063708;29;20080;-71
2021/04/14 13:05:45;;;;;;;20.15;5.35;;;;;;;;;;6054548;29;20136;-73
2021/04/14 13:08:48;;;;;;;5.25;4.50;;;;;;;;;;6067738;29;20942;-71
2021/04/14 13:11:52;;;;;;;4.78;4.18;;;;;;;;;;6063616;29;20127;-70
2021/04/14 13:14:53;;;;;;;;;;;;;;;;;;6066226;29;20051;-71
2021/04/14 13:17:56;;;;;;;6.03;4.30;;;;;;;;;;6056959;29;19927;-71
2021/04/14 13:21:02;;;;;;;5.30;4.80;;;;;;;;;;6065539;29;20068;-70
2021/04/14 13:24:16;;;;;;;5.38;4.28;;;;;;;;;;6065825;29;20072;-70
2021/04/14 13:27:18;;;;;;;;;;;;;;;;;;6056949;29;20047;-70
2021/04/14 13:30:22;;;;;;;5.63;4.10;;;;;;;;;;6062458;29;20050;-72
2021/04/14 13:33:29;;;;;;;5.20;4.38;;;;;;;;;;6065571;29;20063;-72
2021/04/14 13:36:34;;;;;;;5.22;4.72;;;;;;;;;;6066357;29;20060;-70
2021/04/14 13:39:40;;;;;;;5.43;4.20;;;;;;;;;;6062782;29;20132;-73
2021/04/14 13:42:44;;;;;;;7.70;4.28;;;;;;;;;;6064156;29;20508;-70
2021/04/14 13:45:46;;;;;;;;;;;;;;;;;;6073629;29;20068;-70
2021/04/14 13:48:52;;;;;;;5.13;4.40;;;;;;;;;;6065393;29;19927;-72
2021/04/14 13:51:57;;;;;;;6.65;4.40;;;;;;;;;;6069604;29;20100;-72
2021/04/14 13:54:59;;;;;;;5.95;4.55;;;;;;;;;;6063613;29;20139;-72
2021/04/14 13:58:06;;;;;;;5.93;4.85;;;;;;;;;;6068464;29;20077;-71
2021/04/14 14:01:09;;;;;;;5.80;5.05;;;;;;;;;;6076258;29;20177;-72
2021/04/14 14:04:10;;;;;;;6.65;4.60;;;;;;;;;;6074086;29;20135;-72
2021/04/14 14:07:18;;;;;;;5.20;4.45;;;;;;;;;;6068649;29;20072;-72
2021/04/14 14:10:23;;;;;;;5.68;4.45;;;;;;;;;;6065055;29;20068;-71
2021/04/14 14:13:26;;;;;;;9.95;5.00;;;;;;;;;;6054184;29;20059;-72
2021/04/14 14:16:32;;;;;;;5.13;4.63;;;;;;;;;;6063475;29;20143;-72
2021/04/14 14:19:35;;;;;;;5.25;4.50;;;;;;;;;;6060385;29;20143;-71
2021/04/14 14:22:37;;;;;;;8.67;4.27;;;;;;;;;;6061336;29;20646;-72
2021/04/14 14:25:39;;;;;;;6.57;4.38;;;;;;;;;;6069899;29;20144;-70
2021/04/14 14:28:40;;;;;;;5.63;4.50;;;;;;;;;;6064915;29;20080;-70
2021/04/14 14:31:41;;;;;;;5.43;4.70;;;;;;;;;;6072347;29;20164;-71
2021/04/14 14:34:43;;;;;;;6.75;4.25;;;;;;;;;;6068892;29;20049;-70
2021/04/14 14:37:48;;;;;;;5.82;4.50;;;;;;;;;;6070665;29;20165;-71
2021/04/14 14:40:52;;;;;;;5.63;4.47;;;;;;;;;;6064265;29;20057;-70
2021/04/14 14:43:56;;;;;;;9.23;5.03;;;;;;;;;;6061864;29;20049;-70
2021/04/14 14:46:59;;;;;;;5.20;3.70;;;;;;;;;;6071307;29;20068;-71
2021/04/14 14:50:03;;;;;;;7.25;4.45;;;;;;;;;;6070126;29;20429;-70
2021/04/14 14:57:05;;;;;;;8.50;4.47;;;;;;;;;;6049235;29;20381;-71
2021/04/14 15:00:13;;;;;;;7.20;4.82;;;;;;;;;;6062357;29;20475;-71
2021/04/14 15:03:15;;;;;;;7.28;5.22;;;;;;;;;;6062127;29;20188;-72
2021/04/14 15:06:19;;;;;;;11.30;5.57;;;;;;;;;;6065797;29;20072;-73
2021/04/14 15:09:21;;;;;;;6.30;5.15;;;;;;;;;;6067113;29;20158;-73
2021/04/14 15:12:25;;;;;;;15.02;4.97;;;;;;;;;;6075417;29;20128;-72
2021/04/14 15:15:26;;;;;;;;;;;;;;;;;;6063409;29;20961;-71
2021/04/14 15:18:27;;;;;;;6.28;4.38;;;;;;;;;;6070657;29;19998;-70
2021/04/14 15:21:28;;;;;;;7.43;4.93;;;;;;;;;;6067023;29;20143;-70
2021/04/14 15:24:29;;;;;;;6.10;5.03;;;;;;;;;;6068233;29;20284;-68
2021/04/14 15:27:32;;;;;;;8.27;4.60;;;;;;;;;;6068551;29;20149;-72
2021/04/14 15:30:36;;;;;;;6.97;4.68;;;;;;;;;;6071999;29;20072;-70
2021/04/14 15:33:40;;;;;;;;;;;;;;;;;;6060809;29;20140;-70
2021/04/14 15:36:40;;;;;;;;;;;;;;;;;;6062572;29;19931;-71
2021/04/14 15:39:41;;;;;;;5.30;3.90;;;;;;;;;;6055231;29;19993;-72
2021/04/14 15:42:44;;;;;;;25.23;5.57;;;;;;;;;;6060860;29;20131;-70
2021/04/14 15:45:45;;;;;;;8.33;5.07;;;;;;;;;;6066523;29;20053;-73
2021/04/14 15:48:47;;;;;;;12.77;5.80;;;;;;;;;;6068223;29;20086;-74
2021/04/14 15:51:49;;;;;;;5.00;4.50;;;;;;;;;;6071520;29;20056;-74
2021/04/14 15:54:50;;;;;;;5.65;4.78;;;;;;;;;;6069328;29;20132;-71
2021/04/14 15:57:53;;;;;;;6.97;4.53;;;;;;;;;;6069850;29;20055;-71
2021/04/14 16:00:54;;;;;;;8.65;4.30;;;;;;;;;;6068828;29;20132;-72
2021/04/14 16:03:56;;;;;;;5.80;4.82;;;;;;;;;;6066671;29;20136;-72
2021/04/14 16:06:57;;;;;;;6.32;4.82;;;;;;;;;;6061428;29;20424;-72
2021/04/14 16:09:58;;;;;;;5.55;4.75;;;;;;;;;;6065161;29;20436;-70
2021/04/14 16:13:00;;;;;;;6.00;5.40;;;;;;;;;;6065577;29;20127;-71
2021/04/14 16:16:02;;;;;;;7.77;4.90;;;;;;;;;;6064404;29;20076;-72
2021/04/14 16:19:04;;;;;;;5.18;4.57;;;;;;;;;;6061801;29;20612;-71
2021/04/14 16:22:05;;;;;;;6.93;5.60;;;;;;;;;;6068333;29;20048;-70
2021/04/14 16:25:07;;;;;;;7.03;5.65;;;;;;;;;;6065705;29;20093;-71
2021/04/14 16:28:11;;;;;;;6.88;5.50;;;;;;;;;;6064077;29;20087;-71
2021/04/14 16:31:12;;;;;;;6.18;4.80;;;;;;;;;;6069580;29;20647;-71
2021/04/14 16:34:14;;;;;;;7.97;5.38;;;;;;;;;;6054856;29;20812;-71
2021/04/14 16:37:15;;;;;;;6.07;4.60;;;;;;;;;;6066810;29;20076;-70
2021/04/14 16:40:17;;;;;;;6.40;5.13;;;;;;;;;;6064477;29;20559;-70
2021/04/14 16:43:19;;;;;;;5.80;4.93;;;;;;;;;;6060943;29;20405;-71
2021/04/14 16:46:21;;;;;;;7.65;5.18;;;;;;;;;;6060688;29;20139;-71
2021/04/14 16:49:22;;;;;;;10.98;5.55;;;;;;;;;;6067344;29;20057;-70
2021/04/14 16:52:23;;;;;;;7.07;5.10;;;;;;;;;;6063924;29;20143;-70
2021/04/14 16:55:24;;;;;;;6.75;5.47;;;;;;;;;;6066761;29;20089;-70
2021/04/14 16:58:29;;;;;;;9.80;5.70;;;;;;;;;;6066021;29;20092;-70
2021/04/14 17:01:30;;;;;;;7.75;6.18;;;;;;;;;;6065842;29;20052;-70
2021/04/14 17:04:31;;;;;;;8.60;6.43;;;;;;;;;;6064677;29;20440;-70
2021/04/14 17:07:32;;;;;;;8.77;6.25;;;;;;;;;;6057502;29;20143;-70
2021/04/14 17:10:33;;;;;;;8.85;5.40;;;;;;;;;;6055987;29;20132;-70
2021/04/14 17:13:35;;;;;;;6.03;5.10;;;;;;;;;;6062012;29;20173;-70
2021/04/14 17:16:39;;;;;;;9.00;5.78;;;;;;;;;;6066617;29;20768;-70
2021/04/14 17:19:40;;;;;;;9.90;6.07;;;;;;;;;;6062058;29;20520;-70
2021/04/14 17:22:41;;;;;;;9.15;6.28;;;;;;;;;;6060909;29;20075;-69
2021/04/14 17:25:42;;;;;;;7.60;5.70;;;;;;;;;;6065723;29;20100;-70
2021/04/14 17:28:44;;;;;;;8.23;5.75;;;;;;;;;;6064772;29;20068;-70
2021/04/14 17:31:45;;;;;;;8.30;6.30;;;;;;;;;;6062536;29;20100;-70
2021/04/14 17:34:47;;;;;;;8.90;6.22;;;;;;;;;;6063297;29;20152;-70
2021/04/14 17:37:48;;;;;;;8.10;5.47;;;;;;;;;;6067262;29;20418;-70
2021/04/14 17:40:49;;;;;;;8.98;6.18;;;;;;;;;;6070922;29;20069;-70
2021/04/14 17:43:51;;;;;;;10.98;7.60;;;;;;;;;;6059751;29;20055;-71
2021/04/14 17:46:52;;;;;;;11.82;6.80;;;;;;;;;;6072092;29;20044;-70
2021/04/14 17:49:54;;;;;;;9.73;6.68;;;;;;;;;;6071204;29;20500;-71
2021/04/14 17:52:56;;;;;;;9.60;6.65;;;;;;;;;;6072101;29;20056;-71
2021/04/14 17:55:57;;;;;;;8.68;6.45;;;;;;;;;;6080361;29;20076;-70
2021/04/14 17:58:59;;;;;;;10.93;6.65;;;;;;;;;;6063462;29;20088;-71
2021/04/14 18:02:00;;;;;;;8.93;6.35;;;;;;;;;;6061852;29;20076;-71
2021/04/14 18:05:02;;;;;;;9.63;6.90;;;;;;;;;;6066152;29;20084;-70
2021/04/14 18:08:05;;;;;;;8.40;6.47;;;;;;;;;;6063001;29;20502;-71
2021/04/14 18:11:06;;;;;;;8.75;6.32;;;;;;;;;;6074447;29;20049;-71
2021/04/14 18:14:08;;;;;;;8.82;6.68;;;;;;;;;;6077868;29;20045;-70
2021/04/14 18:17:10;;;;;;;10.85;6.65;;;;;;;;;;6073623;29;20061;-71